Time;durP1;ratioP1;P1;durP2;ratioP2;P2;SDS_P1;SDS_P2;PMS_P1;PMS_P2;Temp;Humidity;BMP_temperature;BMP_pressure;BME280_temperature;BME280_humidity;BME280_pressure;Samples;Min_cycle;Max_cycle;Signal;HPM_P1;HPM_P2
2023/04/09 00:02:47;;;;;;;21.38;19.17;;;;;;;;;;10289994;28;20477;-68
2023/04/09 00:07:47;;;;;;;21.98;19.83;;;;;;;;;;10289821;28;20075;-68
2023/04/09 00:12:45;;;;;;;23.05;20.65;;;;;;;;;;10294606;28;20083;-68
2023/04/09 00:17:44;;;;;;;34.38;22.13;;;;;;;;;;10288796;28;20087;-67
2023/04/09 00:22:42;;;;;;;23.55;21.13;;;;;;;;;;10291309;28;20088;-68
2023/04/09 00:27:41;;;;;;;20.30;18.25;;;;;;;;;;10287780;28;20541;-68
2023/04/09 00:32:40;;;;;;;20.75;18.55;;;;;;;;;;10289909;28;20079;-67
2023/04/09 00:37:38;;;;;;;21.33;19.02;;;;;;;;;;10289395;28;20077;-68
2023/04/09 00:42:36;;;;;;;20.80;18.55;;;;;;;;;;10289648;28;20092;-67
2023/04/09 00:47:36;;;;;;;18.08;16.27;;;;;;;;;;10292480;28;20113;-67
2023/04/09 00:52:34;;;;;;;18.73;16.95;;;;;;;;;;10289874;28;20481;-67
2023/04/09 00:57:33;;;;;;;17.90;16.00;;;;;;;;;;10293796;28;20513;-67
2023/04/09 01:02:31;;;;;;;16.58;14.98;;;;;;;;;;10290761;28;20080;-66
2023/04/09 01:07:37;;;;;;;21.50;14.35;;;;;;;;;;10291902;28;20056;-67
2023/04/09 01:12:37;;;;;;;13.82;12.40;;;;;;;;;;10288376;28;20071;-67
2023/04/09 01:17:45;;;;;;;12.93;11.63;;;;;;;;;;10291780;28;20072;-68
2023/04/09 01:22:57;;;;;;;12.38;11.00;;;;;;;;;;10293764;28;20087;-67
2023/04/09 01:28:08;;;;;;;10.40;9.30;;;;;;;;;;10287590;28;20080;-67
2023/04/09 01:33:06;;;;;;;8.55;7.70;;;;;;;;;;10305575;28;20080;-67
2023/04/09 01:38:05;;;;;;;9.98;8.48;;;;;;;;;;10296429;28;20528;-67
2023/04/09 01:43:03;;;;;;;8.45;7.18;;;;;;;;;;10292820;28;20072;-67
2023/04/09 01:48:03;;;;;;;8.63;7.82;;;;;;;;;;10298071;28;20045;-67
2023/04/09 01:53:02;;;;;;;10.05;7.18;;;;;;;;;;10290725;28;20075;-67
2023/04/09 01:58:00;;;;;;;7.85;7.15;;;;;;;;;;10304544;28;20080;-67
2023/04/09 02:03:01;;;;;;;7.82;7.07;;;;;;;;;;10300211;28;20078;-67
2023/04/09 02:08:03;;;;;;;9.80;8.80;;;;;;;;;;10293165;28;20068;-68
2023/04/09 02:13:02;;;;;;;9.18;7.72;;;;;;;;;;10292784;28;20087;-67
2023/04/09 02:18:00;;;;;;;9.65;8.00;;;;;;;;;;10305835;28;20162;-67
2023/04/09 02:22:58;;;;;;;9.57;7.97;;;;;;;;;;10293759;28;20083;-67
2023/04/09 02:27:58;;;;;;;9.02;7.38;;;;;;;;;;10297132;28;20095;-67
2023/04/09 02:32:56;;;;;;;12.15;7.55;;;;;;;;;;10296177;28;20544;-67
2023/04/09 02:37:54;;;;;;;10.75;7.80;;;;;;;;;;10304858;28;20052;-67
2023/04/09 02:42:53;;;;;;;12.07;8.00;;;;;;;;;;10327770;28;20466;-68
2023/04/09 02:47:52;;;;;;;6.45;5.85;;;;;;;;;;10293823;28;20552;-67
2023/04/09 02:52:51;;;;;;;10.35;7.32;;;;;;;;;;10295630;28;20041;-67
2023/04/09 02:57:49;;;;;;;8.15;6.28;;;;;;;;;;10296205;28;20491;-67
2023/04/09 03:02:47;;;;;;;6.88;6.18;;;;;;;;;;10290263;28;20076;-67
2023/04/09 03:07:48;;;;;;;6.10;5.50;;;;;;;;;;10294652;28;20083;-67
2023/04/09 03:12:46;;;;;;;7.68;6.78;;;;;;;;;;10295985;28;20072;-67
2023/04/09 03:17:45;;;;;;;8.80;7.38;;;;;;;;;;10292845;28;20064;-70
2023/04/09 03:22:43;;;;;;;10.30;8.82;;;;;;;;;;10295549;28;20064;-69
2023/04/09 03:27:53;;;;;;;8.32;6.57;;;;;;;;;;10292816;28;20530;-67
2023/04/09 03:33:02;;;;;;;7.70;6.95;;;;;;;;;;10301711;28;20614;-69
2023/04/09 03:38:05;;;;;;;7.63;6.88;;;;;;;;;;10300027;28;20528;-67
2023/04/09 03:43:04;;;;;;;11.55;9.80;;;;;;;;;;10302592;28;20492;-68
2023/04/09 03:48:06;;;;;;;66.03;45.92;;;;;;;;;;10299247;28;20077;-68
2023/04/09 03:53:05;;;;;;;32.47;18.40;;;;;;;;;;10299267;28;20073;-67
2023/04/09 03:58:05;;;;;;;21.98;14.27;;;;;;;;;;10297282;28;20084;-68
2023/04/09 04:03:06;;;;;;;18.85;13.43;;;;;;;;;;10288811;28;20087;-67
2023/04/09 04:08:24;;;;;;;15.18;10.80;;;;;;;;;;10294698;28;20076;-68
2023/04/09 04:13:24;;;;;;;17.25;14.80;;;;;;;;;;10295750;28;20521;-68
2023/04/09 04:18:27;;;;;;;12.45;11.15;;;;;;;;;;10286927;28;20087;-67
2023/04/09 04:23:25;;;;;;;12.70;11.40;;;;;;;;;;10292903;28;20548;-68
2023/04/09 04:28:32;;;;;;;12.52;10.90;;;;;;;;;;10297493;28;20509;-68
2023/04/09 04:33:31;;;;;;;9.80;8.80;;;;;;;;;;10295816;28;20076;-68
2023/04/09 04:38:30;;;;;;;11.73;8.38;;;;;;;;;;10295812;28;20076;-67
2023/04/09 04:43:33;;;;;;;12.32;11.00;;;;;;;;;;10293573;28;20048;-68
2023/04/09 04:48:31;;;;;;;18.67;13.63;;;;;;;;;;10294869;28;20080;-69
2023/04/09 04:53:30;;;;;;;17.98;13.77;;;;;;;;;;10295943;28;20076;-68
2023/04/09 04:58:33;;;;;;;11.20;9.90;;;;;;;;;;10291416;28;20080;-68
2023/04/09 05:03:32;;;;;;;9.90;8.73;;;;;;;;;;10290685;28;20499;-69
2023/04/09 05:08:51;;;;;;;12.82;8.10;;;;;;;;;;10289591;28;20080;-69
2023/04/09 05:13:51;;;;;;;8.70;6.90;;;;;;;;;;10286985;28;20068;-68
2023/04/09 05:18:50;;;;;;;10.63;7.22;;;;;;;;;;10290422;28;20080;-68
2023/04/09 05:23:50;;;;;;;9.35;6.75;;;;;;;;;;10288800;28;20072;-68
2023/04/09 05:28:48;;;;;;;7.90;7.20;;;;;;;;;;10290946;28;20083;-68
2023/04/09 05:33:51;;;;;;;10.25;7.50;;;;;;;;;;10294412;28;20116;-68
2023/04/09 05:38:55;;;;;;;11.50;7.03;;;;;;;;;;10294409;28;20110;-68
2023/04/09 05:43:53;;;;;;;8.50;7.70;;;;;;;;;;10292725;28;20095;-69
2023/04/09 05:48:54;;;;;;;8.80;7.90;;;;;;;;;;10292375;28;20102;-68
2023/04/09 05:53:54;;;;;;;9.50;7.80;;;;;;;;;;10308364;28;20498;-68
2023/04/09 05:58:52;;;;;;;10.82;7.35;;;;;;;;;;10290867;28;20455;-67
2023/04/09 06:03:50;;;;;;;9.05;7.90;;;;;;;;;;10290099;28;20076;-67
2023/04/09 06:08:53;;;;;;;10.52;7.63;;;;;;;;;;10302242;28;20083;-67
2023/04/09 06:13:51;;;;;;;9.25;8.10;;;;;;;;;;10299922;28;20071;-68
2023/04/09 06:18:53;;;;;;;10.60;7.18;;;;;;;;;;10291564;28;20518;-67
2023/04/09 06:23:52;;;;;;;11.18;7.45;;;;;;;;;;10291288;28;20076;-68
2023/04/09 06:28:51;;;;;;;20.42;12.75;;;;;;;;;;10287274;28;20072;-67
2023/04/09 06:33:49;;;;;;;15.75;11.20;;;;;;;;;;10292144;28;20513;-67
2023/04/09 06:38:48;;;;;;;12.35;10.98;;;;;;;;;;10292611;28;20080;-67
2023/04/09 06:43:47;;;;;;;13.93;10.57;;;;;;;;;;10292405;28;20080;-68
2023/04/09 06:48:46;;;;;;;20.45;8.07;;;;;;;;;;10295742;28;20083;-68
2023/04/09 06:53:46;;;;;;;11.50;7.40;;;;;;;;;;10295897;28;20068;-69
2023/04/09 06:58:45;;;;;;;11.88;8.82;;;;;;;;;;10294671;28;20083;-69
2023/04/09 07:03:44;;;;;;;11.05;8.63;;;;;;;;;;10293758;28;20080;-68
2023/04/09 07:08:43;;;;;;;13.32;7.95;;;;;;;;;;10293980;28;20080;-68
2023/04/09 07:13:41;;;;;;;8.30;7.38;;;;;;;;;;10295228;28;20074;-67
2023/04/09 07:18:39;;;;;;;10.98;6.47;;;;;;;;;;10295162;28;20084;-67
2023/04/09 07:23:39;;;;;;;9.13;7.50;;;;;;;;;;10292265;28;20080;-67
2023/04/09 07:28:37;;;;;;;7.00;6.15;;;;;;;;;;10309019;28;20050;-68
2023/04/09 07:33:35;;;;;;;7.78;5.50;;;;;;;;;;10307267;28;20057;-68
2023/04/09 07:38:33;;;;;;;6.38;5.78;;;;;;;;;;10291470;28;20088;-68
2023/04/09 07:43:33;;;;;;;9.63;5.97;;;;;;;;;;10293660;28;20459;-68
2023/04/09 07:48:31;;;;;;;6.82;6.18;;;;;;;;;;10290712;28;20076;-67
2023/04/09 07:53:29;;;;;;;7.65;5.20;;;;;;;;;;10292121;28;20075;-68
2023/04/09 07:58:27;;;;;;;7.32;6.57;;;;;;;;;;10291129;28;20072;-68
2023/04/09 08:03:27;;;;;;;6.28;5.68;;;;;;;;;;10291569;28;20087;-68
2023/04/09 08:08:25;;;;;;;7.13;5.97;;;;;;;;;;10288768;28;20076;-68
2023/04/09 08:13:24;;;;;;;7.15;6.45;;;;;;;;;;10293861;28;20068;-68
2023/04/09 08:18:22;;;;;;;6.53;5.93;;;;;;;;;;10287804;28;20060;-67
2023/04/09 08:23:21;;;;;;;7.88;6.15;;;;;;;;;;10290872;28;20568;-68
2023/04/09 08:28:20;;;;;;;6.30;5.70;;;;;;;;;;10295582;28;20040;-68
2023/04/09 08:33:18;;;;;;;6.15;5.03;;;;;;;;;;10291312;28;20064;-69
2023/04/09 08:38:17;;;;;;;8.77;6.70;;;;;;;;;;10290284;28;20095;-68
2023/04/09 08:43:16;;;;;;;9.18;6.47;;;;;;;;;;10291461;28;20088;-68
2023/04/09 08:48:15;;;;;;;5.90;5.40;;;;;;;;;;10285725;28;20080;-68
2023/04/09 08:53:14;;;;;;;6.20;5.60;;;;;;;;;;10289546;28;20080;-68
2023/04/09 08:58:12;;;;;;;6.65;6.05;;;;;;;;;;10290070;28;20163;-68
2023/04/09 09:03:12;;;;;;;8.50;6.13;;;;;;;;;;10288798;28;20076;-68
2023/04/09 09:08:12;;;;;;;8.63;6.35;;;;;;;;;;10288510;28;20087;-68
2023/04/09 09:13:17;;;;;;;7.88;6.47;;;;;;;;;;10289490;28;20097;-68
2023/04/09 09:18:14;;;;;;;;;;;;;;;;;;10290627;28;20080;-68
2023/04/09 09:23:14;;;;;;;7.55;6.85;;;;;;;;;;10286362;28;19979;-68
2023/04/09 09:28:12;;;;;;;18.65;14.20;;;;;;;;;;10295586;28;20083;-69
2023/04/09 09:33:11;;;;;;;7.03;6.20;;;;;;;;;;10293289;28;20074;-68
2023/04/09 09:38:09;;;;;;;6.70;6.03;;;;;;;;;;10288320;28;20544;-68
2023/04/09 09:43:09;;;;;;;7.13;5.25;;;;;;;;;;10291841;28;20434;-67
2023/04/09 09:48:10;;;;;;;5.75;5.25;;;;;;;;;;10284133;28;20083;-68
2023/04/09 09:53:09;;;;;;;6.65;5.50;;;;;;;;;;10286260;28;20072;-66
2023/04/09 09:58:12;;;;;;;5.70;5.20;;;;;;;;;;10282710;28;20072;-66
2023/04/09 10:03:14;;;;;;;10.63;9.55;;;;;;;;;;10288076;28;20088;-66
2023/04/09 10:08:12;;;;;;;5.57;5.07;;;;;;;;;;10284023;28;20079;-69
2023/04/09 10:13:14;;;;;;;8.15;5.88;;;;;;;;;;10288056;28;20086;-68
2023/04/09 10:18:12;;;;;;;5.65;5.15;;;;;;;;;;10295461;28;20532;-68
2023/04/09 10:23:15;;;;;;;7.50;6.80;;;;;;;;;;10301996;28;20071;-69
2023/04/09 10:28:17;;;;;;;6.63;5.93;;;;;;;;;;10295428;28;20072;-69
2023/04/09 10:33:15;;;;;;;8.05;6.35;;;;;;;;;;10296492;28;20538;-67
2023/04/09 10:38:14;;;;;;;5.72;5.22;;;;;;;;;;10291453;28;20092;-66
2023/04/09 10:43:12;;;;;;;5.80;5.20;;;;;;;;;;10299479;28;20075;-66
2023/04/09 10:48:13;;;;;;;6.82;5.35;;;;;;;;;;10298862;28;20502;-66
2023/04/09 10:53:21;;;;;;;7.57;6.10;;;;;;;;;;10288602;28;20076;-68
2023/04/09 10:58:20;;;;;;;6.70;6.10;;;;;;;;;;10289272;28;20064;-66
2023/04/09 11:03:24;;;;;;;7.63;5.40;;;;;;;;;;10290217;28;20498;-66
2023/04/09 11:08:22;;;;;;;7.93;7.13;;;;;;;;;;10288372;28;20087;-67
2023/04/09 11:13:20;;;;;;;6.68;6.03;;;;;;;;;;10293174;28;20080;-68
2023/04/09 11:18:24;;;;;;;6.68;6.10;;;;;;;;;;10292215;28;20091;-69
2023/04/09 11:23:22;;;;;;;6.78;6.18;;;;;;;;;;10288735;28;20068;-68
2023/04/09 11:28:21;;;;;;;6.10;5.50;;;;;;;;;;10292283;28;20075;-69
2023/04/09 11:33:19;;;;;;;6.00;5.47;;;;;;;;;;10289852;28;20073;-67
2023/04/09 11:38:19;;;;;;;6.05;5.45;;;;;;;;;;10281991;28;20379;-68
2023/04/09 11:43:19;;;;;;;8.10;7.25;;;;;;;;;;10288018;28;20529;-68
2023/04/09 11:48:20;;;;;;;6.05;5.35;;;;;;;;;;10286633;28;20076;-68
2023/04/09 11:53:20;;;;;;;5.40;4.85;;;;;;;;;;10287704;28;20102;-67
2023/04/09 11:58:18;;;;;;;5.93;4.97;;;;;;;;;;10285004;28;20462;-68
2023/04/09 12:03:16;;;;;;;6.03;5.43;;;;;;;;;;10284205;28;20076;-68
2023/04/09 12:08:17;;;;;;;5.93;5.43;;;;;;;;;;10284968;28;20115;-68
2023/04/09 12:13:16;;;;;;;7.68;6.93;;;;;;;;;;10284624;28;20068;-68
2023/04/09 12:18:15;;;;;;;4.20;3.90;;;;;;;;;;10291592;28;20077;-68
2023/04/09 12:23:13;;;;;;;4.78;4.38;;;;;;;;;;10291787;28;20086;-67
2023/04/09 12:28:12;;;;;;;6.07;5.47;;;;;;;;;;10292358;28;20521;-67
2023/04/09 12:33:12;;;;;;;10.50;7.93;;;;;;;;;;10291929;28;20095;-68
2023/04/09 12:38:10;;;;;;;8.60;5.68;;;;;;;;;;10291871;28;20067;-69
2023/04/09 12:43:08;;;;;;;11.35;9.45;;;;;;;;;;10290910;28;20069;-69
2023/04/09 12:48:06;;;;;;;5.72;5.20;;;;;;;;;;10286982;28;20083;-69
2023/04/09 12:53:06;;;;;;;12.68;7.20;;;;;;;;;;10280637;28;20080;-68
2023/04/09 12:58:04;;;;;;;10.27;9.20;;;;;;;;;;10287398;28;20068;-69
2023/04/09 13:03:02;;;;;;;20.58;14.65;;;;;;;;;;10288334;28;20090;-68
2023/04/09 13:08:01;;;;;;;7.43;6.72;;;;;;;;;;10285118;28;20098;-69
2023/04/09 13:13:00;;;;;;;16.38;12.75;;;;;;;;;;10284295;28;20971;-67
2023/04/09 13:17:59;;;;;;;11.30;7.70;;;;;;;;;;10286943;28;20064;-68
2023/04/09 13:22:58;;;;;;;11.30;10.13;;;;;;;;;;10282420;28;20469;-68
2023/04/09 13:27:56;;;;;;;8.48;7.45;;;;;;;;;;10284541;28;20477;-68
2023/04/09 13:32:55;;;;;;;23.80;12.68;;;;;;;;;;10290725;28;20122;-67
2023/04/09 13:37:54;;;;;;;8.75;7.53;;;;;;;;;;10286975;28;20494;-69
2023/04/09 13:42:52;;;;;;;9.50;7.25;;;;;;;;;;10288733;28;20072;-68
2023/04/09 13:47:50;;;;;;;14.20;8.43;;;;;;;;;;10285320;28;20087;-68
2023/04/09 13:52:50;;;;;;;5.82;5.32;;;;;;;;;;10292908;28;20065;-69
2023/04/09 13:57:48;;;;;;;8.68;7.78;;;;;;;;;;10297272;28;20072;-68
2023/04/09 14:02:46;;;;;;;28.00;17.35;;;;;;;;;;10290651;28;20111;-69
2023/04/09 14:07:44;;;;;;;6.55;5.95;;;;;;;;;;10289171;28;20079;-69
2023/04/09 14:12:44;;;;;;;6.25;5.65;;;;;;;;;;10290991;28;20076;-68
2023/04/09 14:17:43;;;;;;;17.17;11.40;;;;;;;;;;10289572;28;20076;-69
2023/04/09 14:22:41;;;;;;;52.17;34.10;;;;;;;;;;10288625;28;20073;-69
2023/04/09 14:27:40;;;;;;;11.00;8.73;;;;;;;;;;10285085;28;20072;-68
2023/04/09 14:32:39;;;;;;;40.17;27.50;;;;;;;;;;10300916;28;20107;-69
2023/04/09 14:37:39;;;;;;;22.50;20.10;;;;;;;;;;10291372;28;20084;-69
2023/04/09 14:42:37;;;;;;;7.03;6.45;;;;;;;;;;10291990;28;20502;-68
2023/04/09 14:47:36;;;;;;;7.18;6.47;;;;;;;;;;10291374;28;20076;-68
2023/04/09 14:52:35;;;;;;;6.75;6.07;;;;;;;;;;10296880;28;20076;-68
2023/04/09 14:57:33;;;;;;;7.00;6.30;;;;;;;;;;10285539;28;20283;-68
2023/04/09 15:02:33;;;;;;;8.05;7.25;;;;;;;;;;10290687;28;20083;-68
2023/04/09 15:07:32;;;;;;;9.45;7.20;;;;;;;;;;10283542;28;20084;-68
2023/04/09 15:12:32;;;;;;;11.68;9.23;;;;;;;;;;10284415;28;20073;-70
2023/04/09 15:17:30;;;;;;;19.50;17.30;;;;;;;;;;10289214;28;20071;-68
2023/04/09 15:22:28;;;;;;;6.78;6.10;;;;;;;;;;10290700;28;20576;-69
2023/04/09 15:27:26;;;;;;;8.23;7.40;;;;;;;;;;10289029;28;20072;-67
2023/04/09 15:32:26;;;;;;;13.25;7.75;;;;;;;;;;10287428;28;20147;-69
2023/04/09 15:37:24;;;;;;;12.68;11.57;;;;;;;;;;10286528;28;20087;-69
2023/04/09 15:42:22;;;;;;;12.38;9.90;;;;;;;;;;10286061;28;20131;-69
2023/04/09 15:47:20;;;;;;;13.25;11.00;;;;;;;;;;10283068;28;20073;-68
2023/04/09 15:52:20;;;;;;;12.43;11.18;;;;;;;;;;10291436;28;20172;-67
2023/04/09 15:57:19;;;;;;;17.40;15.35;;;;;;;;;;10278179;28;20076;-68
2023/04/09 16:02:17;;;;;;;12.05;10.52;;;;;;;;;;10284013;28;20095;-68
2023/04/09 16:07:16;;;;;;;14.60;12.35;;;;;;;;;;10290562;28;20071;-68
2023/04/09 16:12:15;;;;;;;9.65;8.65;;;;;;;;;;10283194;28;20068;-69
2023/04/09 16:17:13;;;;;;;11.38;10.18;;;;;;;;;;10285397;28;20505;-68
2023/04/09 16:22:12;;;;;;;8.10;7.30;;;;;;;;;;10289525;28;20139;-67
2023/04/09 16:27:11;;;;;;;8.50;7.70;;;;;;;;;;10288699;28;20078;-67
2023/04/09 16:32:11;;;;;;;10.48;9.20;;;;;;;;;;10284967;28;20123;-67
2023/04/09 16:37:10;;;;;;;10.70;9.25;;;;;;;;;;10282038;28;20471;-68
2023/04/09 16:42:08;;;;;;;9.40;8.43;;;;;;;;;;10285522;28;20088;-68
2023/04/09 16:47:07;;;;;;;11.57;9.88;;;;;;;;;;10282597;28;20094;-68
2023/04/09 16:52:06;;;;;;;13.60;10.82;;;;;;;;;;10282333;28;20072;-68
2023/04/09 16:57:04;;;;;;;9.40;8.50;;;;;;;;;;10284518;28;20866;-68
2023/04/09 17:02:03;;;;;;;11.25;10.15;;;;;;;;;;10290993;28;20081;-68
2023/04/09 17:07:05;;;;;;;16.38;11.27;;;;;;;;;;10299545;28;20052;-67
2023/04/09 17:12:08;;;;;;;14.85;10.55;;;;;;;;;;10286738;28;20148;-67
2023/04/09 17:17:07;;;;;;;11.85;10.65;;;;;;;;;;10284814;28;20177;-68
2023/04/09 17:22:08;;;;;;;14.73;12.32;;;;;;;;;;10286779;28;20075;-69
2023/04/09 17:27:09;;;;;;;14.20;11.48;;;;;;;;;;10287065;28;20077;-67
2023/04/09 17:32:08;;;;;;;17.25;13.27;;;;;;;;;;10278742;28;20496;-68
2023/04/09 17:37:06;;;;;;;18.92;15.70;;;;;;;;;;10272826;28;20116;-68
2023/04/09 17:42:05;;;;;;;25.55;19.85;;;;;;;;;;10284648;28;20080;-69
2023/04/09 17:47:06;;;;;;;18.08;15.98;;;;;;;;;;10286292;28;20080;-69
2023/04/09 17:52:04;;;;;;;15.48;13.98;;;;;;;;;;10278958;28;20508;-69
2023/04/09 17:57:03;;;;;;;14.95;13.25;;;;;;;;;;10283418;28;20065;-69
2023/04/09 18:02:02;;;;;;;12.38;11.18;;;;;;;;;;10281119;28;20065;-67
2023/04/09 18:07:02;;;;;;;14.75;13.18;;;;;;;;;;10281656;28;20075;-68
2023/04/09 18:12:01;;;;;;;15.63;13.30;;;;;;;;;;10287212;28;20075;-67
2023/04/09 18:17:00;;;;;;;13.15;11.95;;;;;;;;;;10280840;28;20142;-67
2023/04/09 18:21:58;;;;;;;13.07;11.88;;;;;;;;;;10277645;28;20137;-67
2023/04/09 18:26:57;;;;;;;13.63;11.95;;;;;;;;;;10280972;28;20083;-67
2023/04/09 18:31:56;;;;;;;13.77;12.38;;;;;;;;;;10276892;28;20097;-67
2023/04/09 18:36:54;;;;;;;20.73;15.40;;;;;;;;;;10288287;28;20060;-67
2023/04/09 18:41:52;;;;;;;12.60;10.73;;;;;;;;;;10291804;28;20478;-68
2023/04/09 18:46:52;;;;;;;12.93;11.52;;;;;;;;;;10288373;28;20083;-68
2023/04/09 18:51:50;;;;;;;13.10;11.90;;;;;;;;;;10286352;28;20075;-68
2023/04/09 18:56:48;;;;;;;14.13;12.63;;;;;;;;;;10286802;28;20076;-68
2023/04/09 19:01:46;;;;;;;13.05;11.63;;;;;;;;;;10292692;28;20056;-67
2023/04/09 19:06:48;;;;;;;13.63;12.23;;;;;;;;;;10296395;28;20481;-68
2023/04/09 19:11:46;;;;;;;13.50;12.10;;;;;;;;;;10286078;28;20517;-67
2023/04/09 19:16:44;;;;;;;17.52;13.55;;;;;;;;;;10291753;28;20075;-66
2023/04/09 19:21:42;;;;;;;13.52;12.10;;;;;;;;;;10296182;28;20467;-67
2023/04/09 19:26:42;;;;;;;16.42;13.32;;;;;;;;;;10293041;28;20091;-67
2023/04/09 19:31:40;;;;;;;20.65;15.93;;;;;;;;;;10292474;28;20083;-67
2023/04/09 19:36:38;;;;;;;15.85;14.05;;;;;;;;;;10287799;28;20076;-66
2023/04/09 19:41:36;;;;;;;13.52;11.85;;;;;;;;;;10289735;28;20075;-68
2023/04/09 19:46:36;;;;;;;11.30;10.20;;;;;;;;;;10287278;28;20093;-67
2023/04/09 19:51:34;;;;;;;12.95;11.65;;;;;;;;;;10288359;28;20072;-67
2023/04/09 19:56:33;;;;;;;12.43;10.57;;;;;;;;;;10285693;28;20151;-67
2023/04/09 20:01:31;;;;;;;11.02;9.85;;;;;;;;;;10293647;28;20061;-67
2023/04/09 20:06:31;;;;;;;11.65;9.80;;;;;;;;;;10287282;28;20064;-67
2023/04/09 20:11:29;;;;;;;11.05;9.30;;;;;;;;;;10280830;28;20553;-67
2023/04/09 20:16:27;;;;;;;13.02;11.30;;;;;;;;;;10282968;28;20071;-69
2023/04/09 20:21:25;;;;;;;11.07;9.93;;;;;;;;;;10281533;28;20466;-68
2023/04/09 20:26:25;;;;;;;13.13;9.50;;;;;;;;;;10290292;28;20469;-69
2023/04/09 20:31:23;;;;;;;11.40;9.60;;;;;;;;;;10284989;28;20510;-68
2023/04/09 20:36:21;;;;;;;11.57;9.35;;;;;;;;;;10290558;28;20076;-68
2023/04/09 20:41:20;;;;;;;8.77;7.93;;;;;;;;;;10287507;28;20356;-67
2023/04/09 20:46:19;;;;;;;8.77;7.97;;;;;;;;;;10285315;28;20068;-67
2023/04/09 20:51:18;;;;;;;8.77;7.90;;;;;;;;;;10288969;28;20084;-67
2023/04/09 20:56:17;;;;;;;11.68;8.82;;;;;;;;;;10290390;28;20131;-67
2023/04/09 21:01:15;;;;;;;10.48;9.48;;;;;;;;;;10285849;28;20064;-67
2023/04/09 21:06:16;;;;;;;11.10;8.23;;;;;;;;;;10279923;28;20107;-66
2023/04/09 21:11:14;;;;;;;10.07;9.00;;;;;;;;;;10281775;28;20083;-68
2023/04/09 21:16:12;;;;;;;9.27;8.27;;;;;;;;;;10274555;28;20052;-67
2023/04/09 21:21:11;;;;;;;10.40;8.80;;;;;;;;;;10272419;28;20071;-67
2023/04/09 21:26:10;;;;;;;9.38;8.23;;;;;;;;;;10273704;28;20068;-67
2023/04/09 21:31:09;;;;;;;30.63;21.30;;;;;;;;;;10275033;28;20075;-67
2023/04/09 21:36:07;;;;;;;16.05;13.57;;;;;;;;;;10278668;28;20074;-67
2023/04/09 21:41:06;;;;;;;14.55;13.05;;;;;;;;;;10283186;28;20053;-68
2023/04/09 21:46:05;;;;;;;19.20;15.90;;;;;;;;;;10277331;28;20485;-68
2023/04/09 21:51:04;;;;;;;29.52;20.27;;;;;;;;;;10276123;28;20053;-67
2023/04/09 21:56:02;;;;;;;35.10;28.73;;;;;;;;;;10275417;28;20080;-68
2023/04/09 22:01:02;;;;;;;16.02;14.32;;;;;;;;;;10277877;28;20094;-68
2023/04/09 22:06:01;;;;;;;15.20;13.70;;;;;;;;;;10277663;28;20075;-67
2023/04/09 22:10:59;;;;;;;15.77;13.65;;;;;;;;;;10289532;28;20080;-67
2023/04/09 22:15:58;;;;;;;16.58;14.80;;;;;;;;;;10293363;28;20069;-68
2023/04/09 22:20:56;;;;;;;18.88;16.88;;;;;;;;;;10294220;28;20080;-68
2023/04/09 22:26:00;;;;;;;17.30;15.60;;;;;;;;;;10293609;28;20076;-68
2023/04/09 22:30:59;;;;;;;18.98;16.48;;;;;;;;;;10288820;28;20468;-68
2023/04/09 22:35:58;;;;;;;18.88;16.88;;;;;;;;;;10294103;28;20079;-68
2023/04/09 22:40:56;;;;;;;18.73;16.77;;;;;;;;;;10295874;28;20077;-67
2023/04/09 22:45:56;;;;;;;17.13;15.23;;;;;;;;;;10290029;28;20076;-68
2023/04/09 22:50:54;;;;;;;16.65;14.95;;;;;;;;;;10295293;28;20068;-68
2023/04/09 22:55:54;;;;;;;15.88;14.32;;;;;;;;;;10288950;28;20552;-68
2023/04/09 23:00:52;;;;;;;15.13;13.45;;;;;;;;;;10294691;28;20076;-68
2023/04/09 23:05:51;;;;;;;16.63;14.82;;;;;;;;;;10293846;28;20080;-68
2023/04/09 23:10:50;;;;;;;19.02;15.80;;;;;;;;;;10293364;28;20079;-68
2023/04/09 23:15:48;;;;;;;26.48;18.67;;;;;;;;;;10292136;28;20083;-67
2023/04/09 23:20:46;;;;;;;20.33;16.77;;;;;;;;;;10293515;28;20068;-67
2023/04/09 23:25:46;;;;;;;20.73;18.35;;;;;;;;;;10292559;28;20080;-67
2023/04/09 23:30:44;;;;;;;20.77;16.52;;;;;;;;;;10292928;28;20064;-67
2023/04/09 23:35:42;;;;;;;20.77;16.15;;;;;;;;;;10296504;28;20459;-68
2023/04/09 23:40:40;;;;;;;21.35;14.60;;;;;;;;;;10292565;28;20477;-68
2023/04/09 23:45:40;;;;;;;15.88;14.30;;;;;;;;;;10289588;28;20076;-68
2023/04/09 23:50:39;;;;;;;14.65;13.00;;;;;;;;;;10290555;28;20072;-68
2023/04/09 23:55:39;;;;;;;16.70;13.05;;;;;;;;;;10291571;28;20068;-68
